createdAt,value
2018-08-06T00:00:35.937Z,19.83
2018-08-06T00:03:04.600Z,20.53
2018-08-06T00:05:33.032Z,18.00
2018-08-06T00:08:05.325Z,18.67
2018-08-06T00:10:34.803Z,21.10
2018-08-06T00:13:05.292Z,22.33
2018-08-06T00:15:34.259Z,25.00
2018-08-06T00:18:03.321Z,20.43
2018-08-06T00:20:32.611Z,19.07
2018-08-06T00:23:01.188Z,23.27
2018-08-06T00:25:30.973Z,19.03
2018-08-06T00:27:59.715Z,18.80
2018-08-06T00:30:28.404Z,18.07
2018-08-06T00:32:57.282Z,18.63
2018-08-06T00:35:26.682Z,22.10
2018-08-06T00:37:55.251Z,20.33
2018-08-06T00:40:23.696Z,19.40
2018-08-06T00:42:52.352Z,26.57
2018-08-06T00:45:21.833Z,24.90
2018-08-06T00:47:50.416Z,24.17
2018-08-06T00:50:18.874Z,18.37
2018-08-06T00:52:47.400Z,30.70
2018-08-06T00:55:19.512Z,24.57
2018-08-06T00:57:48.293Z,20.90
2018-08-06T01:00:18.986Z,18.93
2018-08-06T01:02:48.928Z,23.67
2018-08-06T01:05:18.101Z,24.33
2018-08-06T01:07:46.993Z,21.20
2018-08-06T01:10:17.162Z,26.20
2018-08-06T01:12:46.018Z,24.80
2018-08-06T01:15:18.497Z,22.40
2018-08-06T01:17:47.500Z,21.13
2018-08-06T01:20:15.957Z,27.73
2018-08-06T01:22:45.709Z,21.80
2018-08-06T01:25:14.967Z,19.97
2018-08-06T01:27:43.604Z,20.27
2018-08-06T01:30:13.751Z,23.63
2018-08-06T01:32:43.151Z,23.13
2018-08-06T01:35:12.005Z,21.70
2018-08-06T01:37:41.582Z,20.73
2018-08-06T01:40:12.666Z,24.63
2018-08-06T01:42:41.500Z,20.87
2018-08-06T01:45:12.981Z,31.90
2018-08-06T01:47:41.357Z,22.80
2018-08-06T01:50:11.424Z,23.23
2018-08-06T01:52:40.319Z,24.03
2018-08-06T01:55:08.539Z,20.43
2018-08-06T01:57:39.358Z,21.50
2018-08-06T02:00:13.202Z,22.13
2018-08-06T02:02:42.982Z,26.53
2018-08-06T02:05:11.630Z,20.97
2018-08-06T02:07:43.268Z,20.27
2018-08-06T02:10:16.084Z,25.50
2018-08-06T02:12:45.163Z,22.87
2018-08-06T02:15:17.061Z,22.07
2018-08-06T02:17:45.519Z,22.73
2018-08-06T02:20:16.646Z,24.77
2018-08-06T02:22:46.657Z,28.80
2018-08-06T02:25:15.494Z,18.73
2018-08-06T02:27:44.302Z,22.80
2018-08-06T02:30:14.796Z,22.37
2018-08-06T02:32:46.194Z,21.80
2018-08-06T02:35:16.153Z,27.13
2018-08-06T02:37:45.285Z,21.80
2018-08-06T02:40:17.410Z,21.93
2018-08-06T02:42:46.233Z,20.03
2018-08-06T02:45:14.744Z,25.33
2018-08-06T02:47:43.475Z,23.63
2018-08-06T02:50:12.988Z,29.43
2018-08-06T02:52:43.831Z,24.33
2018-08-06T02:55:13.926Z,24.40
2018-08-06T02:57:42.910Z,23.40
2018-08-06T03:00:15.050Z,21.10
2018-08-06T03:02:45.154Z,29.13
2018-08-06T03:05:15.409Z,25.07
2018-08-06T03:07:44.738Z,23.83
2018-08-06T03:10:13.743Z,26.10
2018-08-06T03:12:43.203Z,22.90
2018-08-06T03:15:13.316Z,30.90
2018-08-06T03:17:42.412Z,21.63
2018-08-06T03:20:12.358Z,27.53
2018-08-06T03:22:41.077Z,22.07
2018-08-06T03:25:11.766Z,27.17
2018-08-06T03:27:40.337Z,23.50
2018-08-06T03:30:11.371Z,28.00
2018-08-06T03:32:39.955Z,25.40
2018-08-06T03:35:09.996Z,24.43
2018-08-06T03:37:38.546Z,29.20
2018-08-06T03:40:08.995Z,27.83
2018-08-06T03:42:37.576Z,21.37
2018-08-06T03:45:10.309Z,24.33
2018-08-06T03:47:41.177Z,27.07
2018-08-06T03:50:10.961Z,25.50
2018-08-06T03:52:39.627Z,25.10
2018-08-06T03:55:09.249Z,23.93
2018-08-06T03:57:38.194Z,19.20
2018-08-06T04:00:08.393Z,19.50
2018-08-06T04:02:36.853Z,23.13
2018-08-06T04:05:07.408Z,24.43
2018-08-06T04:07:35.605Z,25.50
2018-08-06T04:10:04.311Z,28.67
2018-08-06T04:12:32.785Z,23.90
2018-08-06T04:15:01.518Z,23.80
2018-08-06T04:17:30.126Z,26.33
2018-08-06T04:19:58.854Z,29.20
2018-08-06T04:22:27.589Z,24.70
2018-08-06T04:24:56.270Z,26.23
2018-08-06T04:27:24.791Z,26.53
2018-08-06T04:29:53.669Z,33.50
2018-08-06T04:32:21.674Z,26.30
2018-08-06T04:34:49.867Z,24.87
2018-08-06T04:37:18.452Z,28.40
2018-08-06T04:39:47.386Z,25.00
2018-08-06T04:42:16.728Z,22.80
2018-08-06T04:44:45.179Z,40.00
2018-08-06T04:47:13.702Z,24.97
2018-08-06T04:49:42.236Z,20.83
2018-08-06T04:52:10.929Z,24.37
2018-08-06T04:54:39.564Z,27.50
2018-08-06T04:57:07.971Z,23.33
2018-08-06T04:59:36.508Z,20.87
2018-08-06T05:02:04.936Z,26.03
2018-08-06T05:04:33.382Z,32.83
2018-08-06T05:07:02.184Z,28.27
2018-08-06T05:09:40.973Z,24.90
2018-08-06T05:12:10.017Z,26.03
2018-08-06T05:14:40.021Z,28.50
2018-08-06T05:17:09.592Z,27.60
2018-08-06T05:19:38.412Z,30.50
2018-08-06T05:22:08.377Z,29.67
2018-08-06T05:24:36.941Z,27.90
2018-08-06T05:27:06.036Z,33.10
2018-08-06T05:29:34.286Z,30.40
2018-08-06T05:32:02.971Z,31.50
2018-08-06T05:34:32.821Z,27.80
2018-08-06T05:37:01.170Z,31.50
2018-08-06T05:39:29.624Z,24.53
2018-08-06T05:41:58.372Z,28.57
2018-08-06T05:44:27.032Z,37.47
2018-08-06T05:46:56.965Z,29.13
2018-08-06T05:49:26.366Z,26.37
2018-08-06T05:51:54.930Z,27.40
2018-08-06T05:54:24.545Z,30.17
2018-08-06T05:56:54.025Z,25.33
2018-08-06T05:59:26.129Z,28.33
2018-08-06T06:01:56.160Z,28.87
2018-08-06T06:04:25.186Z,26.43
2018-08-06T06:06:54.884Z,22.27
2018-08-06T06:09:24.824Z,29.73
2018-08-06T06:11:54.512Z,24.27
2018-08-06T06:14:25.788Z,29.10
2018-08-06T06:16:57.164Z,31.50
2018-08-06T06:19:25.829Z,23.63
2018-08-06T06:21:55.024Z,27.00
2018-08-06T06:24:31.720Z,27.43
2018-08-06T06:27:00.800Z,27.60
2018-08-06T06:29:29.605Z,39.07
2018-08-06T06:32:01.103Z,24.27
2018-08-06T06:34:29.931Z,21.47
2018-08-06T06:36:58.711Z,22.33
2018-08-06T06:39:27.610Z,24.30
2018-08-06T06:41:56.463Z,28.50
2018-08-06T06:44:24.943Z,21.33
2018-08-06T06:46:55.788Z,22.80
2018-08-06T06:49:25.837Z,19.33
2018-08-06T06:51:54.279Z,26.13
2018-08-06T06:54:22.802Z,26.53
2018-08-06T06:56:51.445Z,22.23
2018-08-06T06:59:21.433Z,26.30
2018-08-06T07:01:50.043Z,20.50
2018-08-06T07:04:18.699Z,22.90
2018-08-06T07:06:47.266Z,21.70
2018-08-06T07:09:16.096Z,23.87
2018-08-06T07:11:44.929Z,22.93
2018-08-06T07:14:15.418Z,22.63
2018-08-06T07:16:44.116Z,25.53
2018-08-06T07:19:14.027Z,18.67
2018-08-06T07:21:43.852Z,21.43
2018-08-06T07:24:12.564Z,15.50
2018-08-06T07:26:41.284Z,17.63
2018-08-06T07:29:10.641Z,15.83
2018-08-06T07:31:39.682Z,23.83
2018-08-06T07:34:09.136Z,25.97
2018-08-06T07:36:39.030Z,18.33
2018-08-06T07:39:09.833Z,17.83
2018-08-06T07:41:38.616Z,20.13
2018-08-06T07:44:07.299Z,16.77
2018-08-06T07:46:37.244Z,50.20
2018-08-06T09:05:07.060Z,12.93
2018-08-06T09:07:36.575Z,15.80
2018-08-06T09:10:06.176Z,12.50
2018-08-06T09:12:34.161Z,14.27
2018-08-06T09:15:02.932Z,16.70
2018-08-06T09:17:31.550Z,12.70
2018-08-06T09:20:00.070Z,11.13
2018-08-06T09:22:28.663Z,12.50
2018-08-06T09:24:57.112Z,11.60
2018-08-06T09:27:25.785Z,9.70
2018-08-06T09:29:54.507Z,9.83
2018-08-06T09:32:22.881Z,10.37
2018-08-06T09:34:51.454Z,15.60
2018-08-06T09:37:20.261Z,10.83
2018-08-06T09:39:48.794Z,13.63
2018-08-06T09:42:17.235Z,10.13
2018-08-06T09:44:45.668Z,19.80
2018-08-06T09:47:14.168Z,9.00
2018-08-06T09:49:42.669Z,11.33
2018-08-06T09:52:11.074Z,9.40
2018-08-06T09:54:39.717Z,10.60
2018-08-06T09:57:08.295Z,8.27
2018-08-06T09:59:37.387Z,8.77
2018-08-06T10:02:06.112Z,10.03
2018-08-06T10:04:34.787Z,10.40
2018-08-06T10:07:03.302Z,10.40
2018-08-06T10:09:32.366Z,11.90
2018-08-06T10:12:00.809Z,10.07
2018-08-06T10:14:29.280Z,9.87
2018-08-06T10:16:57.854Z,9.23
2018-08-06T10:19:26.475Z,9.60
2018-08-06T10:21:54.946Z,9.80
2018-08-06T10:24:23.518Z,8.20
2018-08-06T10:26:51.822Z,7.47
2018-08-06T10:29:20.334Z,9.80
2018-08-06T10:31:48.994Z,9.43
2018-08-06T10:34:17.838Z,9.10
2018-08-06T10:36:46.204Z,10.03
2018-08-06T10:39:14.677Z,10.03
2018-08-06T10:41:43.178Z,9.77
2018-08-06T10:44:11.754Z,8.07
2018-08-06T10:46:40.986Z,7.97
2018-08-06T10:49:09.508Z,10.47
2018-08-06T10:51:37.714Z,8.50
2018-08-06T10:54:06.105Z,9.50
2018-08-06T10:56:34.552Z,10.80
2018-08-06T10:59:02.968Z,10.50
2018-08-06T11:01:31.854Z,9.37
2018-08-06T11:04:01.902Z,8.37
2018-08-06T11:06:33.442Z,8.83
2018-08-06T11:09:02.053Z,10.67
2018-08-06T11:11:30.745Z,9.67
2018-08-06T11:13:59.316Z,9.50
2018-08-06T11:16:28.304Z,9.00
2018-08-06T11:18:57.146Z,20.00
2018-08-06T11:21:25.953Z,11.27
2018-08-06T11:23:54.548Z,11.47
2018-08-06T11:26:23.233Z,14.13
2018-08-06T11:28:51.757Z,10.10
2018-08-06T11:31:20.360Z,13.93
2018-08-06T11:33:49.049Z,11.93
2018-08-06T11:36:17.349Z,8.87
2018-08-06T11:38:45.938Z,11.50
2018-08-06T11:41:14.473Z,12.00
2018-08-06T11:43:42.968Z,12.03
2018-08-06T11:46:11.531Z,14.40
2018-08-06T11:48:40.301Z,11.53
2018-08-06T11:51:08.816Z,11.60
2018-08-06T11:53:37.238Z,13.57
2018-08-06T11:56:05.781Z,9.53
2018-08-06T11:58:34.248Z,13.63
2018-08-06T12:01:02.741Z,11.20
2018-08-06T12:03:31.443Z,12.50
2018-08-06T12:06:00.038Z,11.50
2018-08-06T12:08:28.550Z,9.30
2018-08-06T12:10:57.049Z,17.23
2018-08-06T12:13:25.439Z,8.20
2018-08-06T12:15:53.828Z,10.00
2018-08-06T12:18:22.196Z,11.90
2018-08-06T12:20:50.549Z,8.27
2018-08-06T12:23:19.049Z,11.30
2018-08-06T12:25:47.432Z,13.53
2018-08-06T12:28:15.847Z,13.63
2018-08-06T12:30:44.209Z,10.73
2018-08-06T12:33:12.589Z,9.43
2018-08-06T12:35:40.954Z,9.50
2018-08-06T12:38:09.475Z,17.57
2018-08-06T12:40:37.932Z,9.87
2018-08-06T12:43:06.754Z,11.10
2018-08-06T12:45:35.505Z,17.90
2018-08-06T12:48:03.895Z,8.40
2018-08-06T12:50:32.136Z,11.90
2018-08-06T12:53:00.579Z,22.07
2018-08-06T12:55:29.027Z,11.57
2018-08-06T12:57:57.488Z,8.80
2018-08-06T13:00:27.343Z,7.80
2018-08-06T13:02:56.060Z,11.83
2018-08-06T13:05:25.358Z,7.93
2018-08-06T13:07:53.866Z,8.23
2018-08-06T13:10:22.133Z,10.70
2018-08-06T13:12:50.906Z,8.80
2018-08-06T13:15:20.954Z,8.53
2018-08-06T13:17:49.254Z,7.87
2018-08-06T13:20:17.715Z,8.50
2018-08-06T13:22:46.452Z,19.40
2018-08-06T13:25:14.759Z,9.27
2018-08-06T13:27:43.435Z,8.83
2018-08-06T13:30:13.932Z,11.30
2018-08-06T13:32:43.223Z,9.83
2018-08-06T13:35:12.547Z,9.60
2018-08-06T13:37:41.449Z,11.00
2018-08-06T13:40:10.690Z,8.37
2018-08-06T13:42:39.231Z,9.67
2018-08-06T13:45:09.817Z,14.57
2018-08-06T13:47:38.412Z,11.00
2018-08-06T13:50:07.587Z,13.23
2018-08-06T13:52:36.817Z,11.93
2018-08-06T13:55:06.310Z,7.97
2018-08-06T13:57:34.994Z,9.90
2018-08-06T14:00:05.072Z,8.23
2018-08-06T14:02:33.566Z,10.37
2018-08-06T14:05:02.364Z,14.13
2018-08-06T14:07:31.074Z,9.80
2018-08-06T14:09:59.723Z,12.00
2018-08-06T14:12:28.217Z,12.30
2018-08-06T14:14:56.878Z,8.63
2018-08-06T14:17:25.307Z,11.10
2018-08-06T14:19:53.735Z,9.60
2018-08-06T14:22:22.473Z,8.20
2018-08-06T14:24:51.198Z,9.87
2018-08-06T14:27:20.032Z,12.83
2018-08-06T14:29:48.720Z,13.33
2018-08-06T14:32:17.272Z,17.97
2018-08-06T14:34:46.480Z,11.00
2018-08-06T14:37:15.308Z,11.17
2018-08-06T14:39:43.771Z,10.50
2018-08-06T14:42:12.315Z,8.30
2018-08-06T14:44:40.928Z,14.00
2018-08-06T14:47:09.357Z,11.43
2018-08-06T14:49:37.874Z,10.00
2018-08-06T14:52:06.466Z,8.47
2018-08-06T14:54:35.157Z,11.93
2018-08-06T14:57:03.747Z,9.00
2018-08-06T14:59:32.283Z,11.60
2018-08-06T15:02:00.759Z,9.20
2018-08-06T15:04:31.305Z,8.33
2018-08-06T15:06:59.705Z,8.70
2018-08-06T15:09:28.274Z,8.40
2018-08-06T15:11:56.784Z,45.10
2018-08-06T15:14:25.594Z,10.23
2018-08-06T15:16:54.158Z,34.73
2018-08-06T15:19:22.945Z,14.33
2018-08-06T15:21:51.639Z,13.30
2018-08-06T15:24:20.118Z,9.33
2018-08-06T15:26:48.410Z,16.53
2018-08-06T15:29:16.839Z,9.00
2018-08-06T15:31:45.190Z,14.80
2018-08-06T15:34:13.767Z,9.10
2018-08-06T15:36:42.243Z,8.27
2018-08-06T15:39:13.422Z,11.23
2018-08-06T15:41:41.934Z,17.23
2018-08-06T15:44:10.464Z,15.90
2018-08-06T15:46:38.799Z,11.00
2018-08-06T15:49:07.530Z,8.30
2018-08-06T15:51:36.220Z,9.00
2018-08-06T15:54:04.565Z,16.33
2018-08-06T15:56:33.028Z,11.73
2018-08-06T15:59:01.496Z,8.57
2018-08-06T16:01:30.095Z,9.43
2018-08-06T16:03:58.509Z,10.07
2018-08-06T16:06:27.195Z,11.60
2018-08-06T16:08:55.637Z,19.43
2018-08-06T16:11:24.204Z,11.10
2018-08-06T16:13:52.800Z,7.77
2018-08-06T16:16:21.241Z,11.90
2018-08-06T16:18:49.645Z,20.40
2018-08-06T16:21:18.222Z,14.73
2018-08-06T16:23:46.769Z,12.60
2018-08-06T16:26:15.309Z,23.87
2018-08-06T16:28:43.754Z,12.90
2018-08-06T16:31:12.208Z,8.97
2018-08-06T16:33:41.051Z,10.30
2018-08-06T16:36:09.653Z,9.60
2018-08-06T16:38:38.246Z,8.03
2018-08-06T16:41:06.658Z,9.93
2018-08-06T16:43:35.147Z,13.00
2018-08-06T16:46:03.746Z,13.20
2018-08-06T16:48:32.285Z,9.93
2018-08-06T16:51:00.943Z,10.17
2018-08-06T16:53:29.413Z,11.07
2018-08-06T16:55:58.015Z,9.70
2018-08-06T16:58:26.557Z,10.37
2018-08-06T17:00:55.173Z,8.57
2018-08-06T17:03:23.693Z,10.23
2018-08-06T17:05:51.923Z,9.10
2018-08-06T17:08:20.468Z,8.57
2018-08-06T17:10:48.961Z,8.90
2018-08-06T17:13:17.459Z,14.60
2018-08-06T17:15:45.809Z,13.97
2018-08-06T17:18:14.304Z,10.40
2018-08-06T17:20:42.687Z,13.97
2018-08-06T17:23:11.088Z,9.90
2018-08-06T17:25:39.553Z,9.87
2018-08-06T17:28:07.947Z,10.03
2018-08-06T17:30:36.369Z,20.83
2018-08-06T17:33:04.899Z,8.33
2018-08-06T17:35:33.285Z,18.30
2018-08-06T17:38:01.664Z,23.47
2018-08-06T17:40:29.857Z,8.53
2018-08-06T17:42:58.037Z,19.90
2018-08-06T17:45:26.496Z,11.70
2018-08-06T17:47:54.877Z,20.70
2018-08-06T17:50:23.770Z,14.57
2018-08-06T17:52:52.991Z,10.50
2018-08-06T17:55:22.203Z,11.30
2018-08-06T17:57:50.633Z,17.90
2018-08-06T18:00:19.428Z,10.10
2018-08-06T18:02:47.932Z,15.90
2018-08-06T18:05:16.793Z,14.90
2018-08-06T18:09:14.322Z,13.10
2018-08-06T18:11:42.566Z,15.37
2018-08-06T18:14:10.981Z,11.00
2018-08-06T18:16:39.311Z,13.23
2018-08-06T18:19:07.570Z,7.70
2018-08-06T18:21:35.754Z,11.73
2018-08-06T18:24:04.387Z,12.27
2018-08-06T18:26:33.033Z,15.13
2018-08-06T18:29:01.454Z,14.50
2018-08-06T18:31:29.993Z,10.73
2018-08-06T18:33:58.457Z,14.93
2018-08-06T18:36:26.854Z,7.13
2018-08-06T18:38:55.294Z,4.67
2018-08-06T18:41:23.446Z,10.43
2018-08-06T18:43:52.089Z,5.07
2018-08-06T18:46:20.315Z,5.77
2018-08-06T18:48:48.755Z,20.03
2018-08-06T18:51:17.209Z,5.37
2018-08-06T18:53:45.755Z,7.53
2018-08-06T18:56:14.187Z,8.33
2018-08-06T18:58:43.620Z,9.00
2018-08-06T19:01:12.360Z,6.67
2018-08-06T19:03:40.570Z,10.50
2018-08-06T19:06:08.736Z,4.80
2018-08-06T19:08:37.112Z,5.80
2018-08-06T19:11:10.520Z,5.00
2018-08-06T19:13:44.291Z,5.63
2018-08-06T19:16:12.852Z,7.07
2018-08-06T19:18:46.726Z,4.20
2018-08-06T19:21:15.205Z,9.43
2018-08-06T19:23:44.770Z,4.03
2018-08-06T19:26:13.188Z,4.20
2018-08-06T19:28:41.732Z,9.30
2018-08-06T19:31:15.405Z,6.60
2018-08-06T19:33:43.969Z,4.50
2018-08-06T19:37:41.922Z,10.10
2018-08-06T19:40:11.372Z,8.27
2018-08-06T19:42:45.118Z,8.63
2018-08-06T19:45:13.948Z,6.00
2018-08-06T19:47:43.012Z,7.37
2018-08-06T19:50:16.828Z,2.77
2018-08-06T19:52:45.260Z,4.83
2018-08-06T19:55:19.012Z,7.77
2018-08-06T19:57:47.606Z,5.30
2018-08-06T20:00:16.208Z,3.83
2018-08-06T20:02:44.921Z,4.43
2018-08-06T20:05:13.535Z,3.70
2018-08-06T20:07:41.955Z,4.50
2018-08-06T20:10:12.198Z,6.83
2018-08-06T20:12:40.500Z,8.93
2018-08-06T20:15:13.725Z,4.30
2018-08-06T20:17:42.329Z,2.50
2018-08-06T20:20:11.572Z,3.30
2018-08-06T20:22:40.191Z,4.13
2018-08-06T20:25:11.459Z,3.43
2018-08-06T20:27:40.086Z,3.87
2018-08-06T20:30:09.842Z,3.07
2018-08-06T20:32:38.592Z,2.67
2018-08-06T20:35:11.730Z,3.93
2018-08-06T20:37:39.856Z,2.80
2018-08-06T20:40:09.403Z,3.63
2018-08-06T20:42:39.106Z,3.37
2018-08-06T20:45:11.865Z,4.30
2018-08-06T20:47:40.974Z,19.23
2018-08-06T20:50:11.628Z,4.33
2018-08-06T20:52:39.958Z,5.63
2018-08-06T20:55:09.439Z,3.73
2018-08-06T20:57:38.254Z,4.13
2018-08-06T21:00:07.470Z,3.90
2018-08-06T21:02:36.144Z,6.00
2018-08-06T21:05:04.424Z,4.90
2018-08-06T21:07:32.778Z,11.27
2018-08-06T21:10:01.288Z,5.57
2018-08-06T21:12:29.844Z,5.47
2018-08-06T21:14:58.333Z,2.67
2018-08-06T21:17:26.835Z,10.07
2018-08-06T21:19:55.197Z,8.00
2018-08-06T21:22:23.751Z,5.07
2018-08-06T21:24:52.243Z,3.50
2018-08-06T21:27:20.756Z,6.10
2018-08-06T21:29:49.181Z,6.10
2018-08-06T21:32:17.729Z,5.50
2018-08-06T21:34:46.064Z,5.57
2018-08-06T21:37:14.368Z,10.07
2018-08-06T21:39:42.491Z,4.80
2018-08-06T21:42:11.065Z,4.87
2018-08-06T21:44:39.651Z,10.43
2018-08-06T21:47:08.423Z,6.67
2018-08-06T21:49:36.918Z,5.03
2018-08-06T21:52:05.539Z,4.83
2018-08-06T21:54:34.368Z,3.43
2018-08-06T21:57:02.818Z,17.40
2018-08-06T21:59:31.435Z,2.83
2018-08-06T22:02:00.122Z,12.60
2018-08-06T22:04:28.779Z,5.80
2018-08-06T22:06:57.219Z,3.20
2018-08-06T22:09:25.681Z,4.50
2018-08-06T22:11:54.155Z,7.50
2018-08-06T22:14:22.522Z,15.80
2018-08-06T22:16:58.871Z,7.63
2018-08-06T22:19:27.390Z,10.03
2018-08-06T22:21:57.798Z,4.27
2018-08-06T22:24:32.903Z,10.30
2018-08-06T22:27:01.592Z,4.80
2018-08-06T22:29:30.263Z,5.97
2018-08-06T22:31:58.964Z,4.87
2018-08-06T22:34:27.767Z,6.37
2018-08-06T22:36:56.312Z,3.90
2018-08-06T22:39:24.975Z,3.30
2018-08-06T22:41:53.181Z,7.70
2018-08-06T22:44:22.330Z,6.50
2018-08-06T22:46:50.539Z,3.67
2018-08-06T22:49:19.008Z,5.67
2018-08-06T22:51:47.490Z,4.03
2018-08-06T22:54:16.100Z,11.43
2018-08-06T22:56:44.883Z,3.90
2018-08-06T22:59:13.318Z,3.57
2018-08-06T23:01:41.801Z,8.60
2018-08-06T23:04:11.449Z,5.87
2018-08-06T23:06:39.769Z,5.37
2018-08-06T23:09:10.738Z,13.03
2018-08-06T23:11:40.140Z,3.43
2018-08-06T23:14:08.999Z,3.33
2018-08-06T23:16:37.673Z,6.53
2018-08-06T23:19:06.377Z,3.70
2018-08-06T23:21:34.982Z,3.50
2018-08-06T23:24:07.588Z,4.63
2018-08-06T23:26:36.203Z,3.33
2018-08-06T23:29:04.744Z,5.60
2018-08-06T23:31:33.425Z,5.70
2018-08-06T23:34:02.178Z,3.23
2018-08-06T23:36:30.668Z,5.27
2018-08-06T23:38:59.140Z,3.43
2018-08-06T23:41:27.710Z,4.23
2018-08-06T23:43:56.210Z,4.70
2018-08-06T23:46:24.784Z,6.80
2018-08-06T23:48:53.073Z,4.10
2018-08-06T23:51:21.536Z,4.67
2018-08-06T23:53:50.081Z,15.63
2018-08-06T23:56:18.550Z,3.27
2018-08-06T23:58:46.884Z,3.17
